Time;durP1;ratioP1;P1;durP2;ratioP2;P2;SDS_P1;SDS_P2;PMS_P1;PMS_P2;Temp;Humidity;BMP_temperature;BMP_pressure;BME280_temperature;BME280_humidity;BME280_pressure;Samples;Min_cycle;Max_cycle;Signal;HPM_P1;HPM_P2
2022/01/21 00:00:37;;;;;;;0.40;0.40;;;-1.20;99.90;;;;;;5258643;28;20474;-77
2022/01/21 00:04:04;;;;;;;0.40;0.40;;;-1.10;99.90;;;;;;5239854;28;20451;-79
2022/01/21 00:07:28;;;;;;;0.40;0.40;;;-1.10;99.90;;;;;;5251252;28;20615;-76
2022/01/21 00:10:51;;;;;;;0.40;0.40;;;-1.00;99.90;;;;;;5263546;28;20036;-78
2022/01/21 00:14:15;;;;;;;0.55;0.55;;;-0.90;99.90;;;;;;5219901;28;20102;-77
2022/01/21 00:17:40;;;;;;;0.43;0.43;;;-0.80;99.90;;;;;;5229429;28;20381;-77
2022/01/21 00:32:19;;;;;;;0.60;0.60;;;-0.60;99.90;;;;;;5248642;28;20032;-78
2022/01/21 00:35:21;;;;;;;0.40;0.40;;;-0.60;99.90;;;;;;5262087;28;20052;-77
2022/01/21 00:38:00;;;;;;;0.40;0.40;;;-0.50;99.90;;;;;;5265608;28;20043;-78
2022/01/21 00:40:34;;;;;;;0.43;0.43;;;-0.50;99.90;;;;;;5225756;28;20535;-78
2022/01/21 00:45:41;;;;;;;0.50;0.50;;;-0.40;99.90;;;;;;5262244;28;20082;-78
2022/01/21 00:48:12;;;;;;;0.50;0.50;;;-0.30;99.90;;;;;;5245327;28;20032;-78
2022/01/21 00:50:49;;;;;;;0.50;0.50;;;-0.30;99.90;;;;;;5228355;28;20118;-78
2022/01/21 00:53:26;;;;;;;0.50;0.50;;;-0.30;99.90;;;;;;5245346;28;20031;-78
2022/01/21 00:56:52;;;;;;;0.40;0.40;;;-0.30;99.90;;;;;;5262349;28;20051;-77
2022/01/21 00:59:23;;;;;;;0.50;0.50;;;-0.40;99.90;;;;;;5226399;28;20085;-77
2022/01/21 01:01:59;;;;;;;0.37;0.37;;;-0.70;99.90;;;;;;5227786;28;20055;-78
2022/01/21 01:04:33;;;;;;;0.30;0.30;;;-0.70;99.90;;;;;;5226896;28;20148;-77
2022/01/21 01:07:10;;;;;;;0.47;0.47;;;-0.80;99.90;;;;;;5236338;28;20098;-78
2022/01/21 01:09:43;;;;;;;0.40;0.40;;;-0.80;99.90;;;;;;5226767;28;20066;-77
2022/01/21 01:12:54;;;;;;;0.37;0.37;;;-0.90;99.90;;;;;;5224517;28;20474;-77
2022/01/21 01:21:09;;;;;;;0.40;0.40;;;-1.40;99.90;;;;;;5242872;28;20195;-78
2022/01/21 01:29:24;;;;;;;0.40;0.40;;;-1.80;99.90;;;;;;5247410;28;20020;-77
2022/01/21 01:31:55;;;;;;;0.40;0.40;;;-1.80;99.90;;;;;;5258239;28;20074;-77
2022/01/21 01:34:28;;;;;;;0.40;0.40;;;-1.80;99.90;;;;;;5253576;28;20024;-77
2022/01/21 01:37:10;;;;;;;0.50;0.50;;;-1.80;99.90;;;;;;5238372;28;20081;-77
2022/01/21 01:39:47;;;;;;;0.47;0.47;;;-1.70;99.90;;;;;;5231785;28;20050;-78
2022/01/21 01:51:03;;;;;;;0.40;0.40;;;-1.40;99.90;;;;;;5261061;28;20058;-77
2022/01/21 01:53:44;;;;;;;0.40;0.40;;;-1.40;99.90;;;;;;5261009;28;20058;-77
2022/01/21 01:56:19;;;;;;;0.37;0.37;;;-1.20;99.90;;;;;;5235699;28;20027;-79
2022/01/21 01:58:50;;;;;;;0.50;0.50;;;-1.10;99.90;;;;;;5242542;28;20040;-78
2022/01/21 02:01:21;;;;;;;0.43;0.43;;;-1.00;99.90;;;;;;5243741;28;20115;-78
2022/01/21 02:03:52;;;;;;;0.40;0.40;;;-0.80;99.90;;;;;;5261162;28;20032;-78
2022/01/21 02:06:29;;;;;;;0.37;0.37;;;-0.80;99.90;;;;;;5250212;28;20055;-79
2022/01/21 02:09:00;;;;;;;0.50;0.50;;;-0.90;99.90;;;;;;5260300;28;20032;-76
2022/01/21 02:11:31;;;;;;;0.70;0.70;;;-0.80;99.90;;;;;;5242822;28;20078;-76
2022/01/21 02:14:10;;;;;;;0.40;0.40;;;-0.80;99.90;;;;;;5262217;28;20549;-75
2022/01/21 02:22:31;;;;;;;0.50;0.50;;;-0.70;99.90;;;;;;5259779;28;20024;-75
2022/01/21 02:25:17;;;;;;;0.40;0.40;;;-0.80;99.90;;;;;;5274040;28;20031;-75
2022/01/21 02:27:59;;;;;;;0.47;0.47;;;-0.70;99.90;;;;;;5258811;28;20027;-77
2022/01/21 02:30:36;;;;;;;0.50;0.50;;;-0.70;99.90;;;;;;5260845;28;20051;-75
2022/01/21 02:33:12;;;;;;;0.50;0.50;;;-0.70;99.90;;;;;;5260982;28;20035;-75
2022/01/21 02:35:48;;;;;;;0.50;0.50;;;-0.70;99.90;;;;;;5260320;28;20058;-76
2022/01/21 02:38:27;;;;;;;0.60;0.60;;;-0.70;99.90;;;;;;5264024;28;20020;-76
2022/01/21 02:41:00;;;;;;;0.43;0.43;;;-0.80;99.90;;;;;;5259996;28;20042;-76
2022/01/21 02:43:31;;;;;;;0.40;0.40;;;-0.80;99.90;;;;;;5209488;28;20098;-76
2022/01/21 02:46:09;;;;;;;0.60;0.60;;;-0.80;99.90;;;;;;5243190;28;20044;-76
2022/01/21 02:48:44;;;;;;;0.57;0.57;;;-0.80;99.90;;;;;;5226847;28;20032;-76
2022/01/21 02:51:18;;;;;;;0.63;0.63;;;-0.90;99.90;;;;;;5243824;28;20024;-76
2022/01/21 02:56:25;;;;;;;0.50;0.50;;;-1.00;99.90;;;;;;5245792;28;20052;-76
2022/01/21 02:58:56;;;;;;;0.75;0.75;;;-0.90;99.90;;;;;;5263431;28;20131;-77
2022/01/21 03:01:32;;;;;;;0.60;0.60;;;-1.00;99.90;;;;;;5245060;28;20107;-77
2022/01/21 03:04:08;;;;;;;0.60;0.60;;;-1.00;99.90;;;;;;5232026;28;20024;-77
2022/01/21 03:06:42;;;;;;;0.50;0.50;;;-1.00;99.90;;;;;;5238354;28;20070;-78
2022/01/21 03:09:15;;;;;;;0.50;0.50;;;-1.00;99.90;;;;;;5231381;28;20363;-79
2022/01/21 03:11:52;;;;;;;0.40;0.40;;;-1.00;99.90;;;;;;5248673;28;20051;-79
2022/01/21 03:14:27;;;;;;;0.43;0.43;;;-1.00;99.90;;;;;;5232876;28;20065;-78
2022/01/21 03:17:01;;;;;;;0.60;0.60;;;-1.10;99.90;;;;;;5245769;28;20183;-78
2022/01/21 03:19:43;;;;;;;0.52;0.52;;;-1.00;99.90;;;;;;5246621;28;20028;-77
2022/01/21 03:22:19;;;;;;;0.43;0.43;;;-1.00;99.90;;;;;;5244632;28;20028;-76
2022/01/21 03:24:58;;;;;;;0.50;0.50;;;-1.00;99.90;;;;;;5262767;28;20342;-77
2022/01/21 03:27:37;;;;;;;0.40;0.40;;;-1.00;99.90;;;;;;5262864;28;20020;-76
2022/01/21 03:30:10;;;;;;;0.40;0.40;;;-1.10;99.90;;;;;;5262069;28;20490;-77
2022/01/21 03:32:41;;;;;;;0.40;0.40;;;-1.10;99.90;;;;;;5260145;28;20027;-76
2022/01/21 03:35:18;;;;;;;0.50;0.50;;;-1.00;99.90;;;;;;5247501;28;20035;-76
2022/01/21 03:37:54;;;;;;;0.50;0.50;;;-0.90;99.90;;;;;;5227221;28;20047;-76
2022/01/21 03:40:29;;;;;;;0.43;0.43;;;-1.00;99.90;;;;;;5213342;28;20038;-77
2022/01/21 03:43:02;;;;;;;0.50;0.50;;;-1.00;99.90;;;;;;5265362;28;20028;-77
2022/01/21 03:45:37;;;;;;;0.50;0.50;;;-1.00;99.90;;;;;;5247707;28;20027;-77
2022/01/21 03:48:08;;;;;;;0.40;0.40;;;-0.90;99.90;;;;;;5231773;28;20040;-77
2022/01/21 03:50:42;;;;;;;0.60;0.60;;;-1.00;99.90;;;;;;5247253;28;20028;-76
2022/01/21 03:53:12;;;;;;;;;;;-1.00;99.90;;;;;;5247946;28;20047;-76
2022/01/21 03:55:47;;;;;;;0.50;0.50;;;-1.00;99.90;;;;;;5246535;28;19912;-76
2022/01/21 03:58:19;;;;;;;0.47;0.47;;;-1.10;99.90;;;;;;5247877;28;20019;-77
2022/01/21 04:00:55;;;;;;;0.50;0.50;;;-1.10;99.90;;;;;;5264441;28;20031;-76
2022/01/21 04:03:29;;;;;;;0.47;0.47;;;-1.10;99.90;;;;;;5262556;28;20036;-77
2022/01/21 04:06:06;;;;;;;0.50;0.50;;;-1.10;99.90;;;;;;5253749;28;20449;-77
2022/01/21 04:08:37;;;;;;;0.50;0.50;;;-1.10;99.90;;;;;;5246520;28;20149;-76
2022/01/21 04:11:10;;;;;;;0.50;0.50;;;-1.00;99.90;;;;;;5246959;28;20024;-76
2022/01/21 04:13:46;;;;;;;0.40;0.40;;;-1.10;99.90;;;;;;5264542;28;20514;-75
2022/01/21 04:16:18;;;;;;;0.47;0.47;;;-1.10;99.90;;;;;;5225040;28;20482;-76
2022/01/21 04:18:52;;;;;;;0.50;0.50;;;-1.10;99.90;;;;;;5262498;28;20107;-76
2022/01/21 04:21:35;;;;;;;0.57;0.57;;;-1.10;99.90;;;;;;5267086;28;21254;-76
2022/01/21 04:24:11;;;;;;;0.40;0.40;;;-1.10;99.90;;;;;;5250925;28;20031;-76
2022/01/21 04:26:44;;;;;;;0.40;0.40;;;-1.10;99.90;;;;;;5247542;28;20040;-75
2022/01/21 04:29:24;;;;;;;0.57;0.57;;;-1.20;99.90;;;;;;5246544;28;20024;-76
2022/01/21 04:31:57;;;;;;;0.40;0.40;;;-1.20;99.90;;;;;;5246071;28;20267;-78
2022/01/21 04:34:28;;;;;;;0.50;0.50;;;-1.20;99.90;;;;;;5263060;28;20233;-79
2022/01/21 04:37:02;;;;;;;0.50;0.50;;;-1.20;99.90;;;;;;5246346;28;20032;-77
2022/01/21 04:39:41;;;;;;;0.50;0.50;;;-1.20;99.90;;;;;;5230589;28;20020;-77
2022/01/21 04:48:04;;;;;;;0.40;0.40;;;-1.30;99.90;;;;;;5177439;28;20037;-76
2022/01/21 04:50:54;;;;;;;0.60;0.60;;;-1.30;99.90;;;;;;5218247;28;20050;-76
2022/01/21 04:53:28;;;;;;;0.40;0.40;;;-1.40;99.90;;;;;;5263345;28;20058;-76
2022/01/21 04:56:00;;;;;;;0.50;0.50;;;-1.50;99.90;;;;;;5211536;28;20357;-75
2022/01/21 04:58:37;;;;;;;0.50;0.50;;;-1.50;99.90;;;;;;5229101;28;20016;-76
2022/01/21 05:01:15;;;;;;;0.50;0.50;;;-1.40;99.90;;;;;;5244544;28;20024;-76
2022/01/21 05:03:57;;;;;;;0.50;0.50;;;-1.40;99.90;;;;;;5261218;28;20048;-75
2022/01/21 05:06:31;;;;;;;1.03;1.03;;;-1.40;99.90;;;;;;5244638;28;20524;-76
2022/01/21 05:09:03;;;;;;;0.50;0.50;;;-1.40;99.90;;;;;;5249417;28;20051;-76
2022/01/21 05:11:41;;;;;;;0.40;0.40;;;-1.40;99.90;;;;;;5261333;28;20058;-76
2022/01/21 05:14:25;;;;;;;0.40;0.40;;;-1.50;99.90;;;;;;5244103;28;20044;-75
2022/01/21 05:17:05;;;;;;;0.52;0.52;;;-1.50;99.90;;;;;;5249557;28;20032;-76
2022/01/21 05:19:36;;;;;;;0.50;0.50;;;-1.50;99.90;;;;;;5244507;28;20027;-76
2022/01/21 05:22:08;;;;;;;0.40;0.40;;;-1.60;99.90;;;;;;5227414;28;20052;-76
2022/01/21 05:24:49;;;;;;;0.40;0.40;;;-1.60;99.90;;;;;;5244055;28;20051;-76
2022/01/21 05:27:30;;;;;;;0.40;0.40;;;-1.60;99.90;;;;;;5261494;28;20051;-76
2022/01/21 05:30:04;;;;;;;0.60;0.60;;;-1.50;99.90;;;;;;5244558;28;20044;-76
2022/01/21 05:32:38;;;;;;;0.40;0.40;;;-1.60;99.90;;;;;;5243827;28;20031;-76
2022/01/21 05:35:12;;;;;;;0.55;0.55;;;-1.70;99.90;;;;;;5262170;28;20032;-76
2022/01/21 05:37:43;;;;;;;0.30;0.30;;;-1.80;99.90;;;;;;5227416;28;20079;-75
2022/01/21 05:40:17;;;;;;;0.50;0.50;;;-1.80;99.90;;;;;;5221221;28;20037;-75
2022/01/21 05:42:49;;;;;;;0.50;0.50;;;-1.70;99.90;;;;;;5227385;28;20114;-75
2022/01/21 05:48:13;;;;;;;0.60;0.60;;;-1.80;99.90;;;;;;5247837;28;20016;-75
2022/01/21 05:50:45;;;;;;;0.50;0.50;;;-1.70;99.90;;;;;;5244358;28;20109;-74
2022/01/21 05:53:16;;;;;;;0.47;0.47;;;-1.80;99.90;;;;;;5238624;28;20343;-76
2022/01/21 05:55:49;;;;;;;0.40;0.40;;;-1.80;99.90;;;;;;5227737;28;20054;-75
2022/01/21 05:58:26;;;;;;;0.47;0.47;;;-1.80;99.90;;;;;;5264811;28;21019;-75
2022/01/21 06:00:57;;;;;;;0.53;0.53;;;-1.90;99.90;;;;;;5229307;28;20353;-75
2022/01/21 06:03:31;;;;;;;0.50;0.50;;;-1.80;99.90;;;;;;5271487;28;20016;-75
2022/01/21 06:06:02;;;;;;;0.40;0.40;;;-1.80;99.90;;;;;;5247378;28;20116;-76
2022/01/21 06:08:37;;;;;;;0.50;0.50;;;-1.80;99.90;;;;;;5259410;28;20030;-75
2022/01/21 06:11:11;;;;;;;0.47;0.47;;;-1.70;99.90;;;;;;5240707;28;20091;-75
2022/01/21 06:13:45;;;;;;;;;;;-1.70;99.90;;;;;;5249122;28;20028;-75
2022/01/21 06:16:19;;;;;;;0.40;0.40;;;-1.70;99.90;;;;;;5255606;28;19912;-75
2022/01/21 06:18:51;;;;;;;0.40;0.40;;;-1.80;99.90;;;;;;5266079;28;20407;-75
2022/01/21 06:21:25;;;;;;;0.50;0.50;;;-1.70;99.90;;;;;;5243162;28;20055;-75
2022/01/21 06:23:58;;;;;;;;;;;-1.80;99.90;;;;;;5245494;28;20521;-75
2022/01/21 06:26:35;;;;;;;0.40;0.40;;;-1.70;99.90;;;;;;5266636;28;19974;-75
2022/01/21 06:29:11;;;;;;;0.60;0.60;;;-1.70;99.90;;;;;;5262568;28;20032;-74
2022/01/21 06:31:45;;;;;;;0.50;0.50;;;-1.70;99.90;;;;;;5261826;28;20417;-74
2022/01/21 06:34:15;;;;;;;0.70;0.70;;;-1.70;99.90;;;;;;5244485;28;20035;-74
2022/01/21 06:36:46;;;;;;;0.40;0.40;;;-1.80;99.90;;;;;;5244205;28;20216;-74
2022/01/21 06:39:20;;;;;;;0.60;0.60;;;-1.80;99.90;;;;;;5244028;28;20042;-74
2022/01/21 06:41:54;;;;;;;0.70;0.70;;;-1.70;99.90;;;;;;5246396;28;20070;-74
2022/01/21 06:44:25;;;;;;;0.50;0.50;;;-1.70;99.90;;;;;;5261159;28;20059;-74
2022/01/21 06:47:00;;;;;;;0.53;0.53;;;-1.60;99.90;;;;;;5244452;28;20073;-74
2022/01/21 06:49:35;;;;;;;0.50;0.50;;;-1.60;99.90;;;;;;5243506;28;20059;-74
2022/01/21 06:52:10;;;;;;;0.40;0.40;;;-1.60;99.90;;;;;;5226910;28;20478;-74
2022/01/21 06:54:41;;;;;;;0.60;0.60;;;-1.50;99.90;;;;;;5241446;28;20047;-74
2022/01/21 06:57:12;;;;;;;0.60;0.60;;;-1.50;99.90;;;;;;5242868;28;20020;-74
2022/01/21 06:59:43;;;;;;;0.50;0.50;;;-1.50;99.90;;;;;;5227301;28;20048;-73
2022/01/21 07:02:19;;;;;;;0.60;0.60;;;-1.50;99.90;;;;;;5258651;28;20024;-73
2022/01/21 07:04:52;;;;;;;0.60;0.60;;;-1.50;99.90;;;;;;5211649;28;20107;-73
2022/01/21 07:07:28;;;;;;;0.50;0.50;;;-1.50;99.90;;;;;;5227474;28;20055;-73
2022/01/21 07:10:01;;;;;;;0.60;0.60;;;-1.60;99.90;;;;;;5259989;28;20032;-73
2022/01/21 07:12:38;;;;;;;0.40;0.40;;;-1.50;99.90;;;;;;5241560;28;20475;-73
2022/01/21 07:15:15;;;;;;;0.80;0.80;;;-1.50;99.90;;;;;;5254907;28;20024;-74
2022/01/21 07:17:52;;;;;;;0.40;0.40;;;-1.50;99.90;;;;;;5264540;28;20039;-73
2022/01/21 07:20:28;;;;;;;0.50;0.50;;;-1.30;99.90;;;;;;5243149;28;20467;-73
2022/01/21 07:23:01;;;;;;;0.43;0.43;;;-1.40;99.90;;;;;;5254041;28;20047;-73
2022/01/21 07:25:36;;;;;;;0.50;0.50;;;-1.30;99.90;;;;;;5274350;28;20031;-73
2022/01/21 07:28:10;;;;;;;0.57;0.57;;;-1.30;99.90;;;;;;5227868;28;20036;-73
2022/01/21 07:30:43;;;;;;;0.57;0.57;;;-1.30;99.90;;;;;;5242892;28;20047;-73
2022/01/21 07:33:20;;;;;;;0.70;0.70;;;-1.30;99.90;;;;;;5251162;28;20036;-73
2022/01/21 07:35:51;;;;;;;0.50;0.50;;;-1.30;99.90;;;;;;5228615;28;20040;-73
2022/01/21 07:38:22;;;;;;;0.40;0.40;;;-1.20;99.90;;;;;;5249869;28;20034;-73
2022/01/21 07:40:55;;;;;;;0.50;0.50;;;-1.20;99.90;;;;;;5257267;28;20335;-73
2022/01/21 07:43:26;;;;;;;0.40;0.40;;;-1.20;99.90;;;;;;5231548;28;20296;-73
2022/01/21 07:45:59;;;;;;;0.50;0.50;;;-1.20;99.90;;;;;;5263729;28;20379;-73
2022/01/21 07:48:33;;;;;;;0.60;0.60;;;-1.20;99.90;;;;;;5231090;28;20379;-73
2022/01/21 07:51:08;;;;;;;0.50;0.50;;;-1.20;99.90;;;;;;5224537;28;20055;-75
2022/01/21 07:53:39;;;;;;;0.60;0.60;;;-1.20;99.90;;;;;;5252139;28;20333;-74
2022/01/21 07:56:12;;;;;;;0.47;0.47;;;-1.20;99.90;;;;;;5261487;28;20055;-75
2022/01/21 07:58:46;;;;;;;0.50;0.50;;;-1.20;99.90;;;;;;5245217;28;20032;-73
2022/01/21 08:01:20;;;;;;;0.45;0.45;;;-1.30;99.90;;;;;;5263355;28;20024;-73
2022/01/21 08:03:56;;;;;;;0.50;0.50;;;-1.30;99.90;;;;;;5244376;28;20067;-75
2022/01/21 08:06:28;;;;;;;0.60;0.60;;;-1.30;99.90;;;;;;5234841;28;20040;-73
2022/01/21 08:09:02;;;;;;;0.40;0.40;;;-1.20;99.90;;;;;;5243429;28;20044;-73
2022/01/21 08:11:36;;;;;;;0.60;0.60;;;-1.20;99.90;;;;;;5261553;28;20090;-74
2022/01/21 08:14:06;;;;;;;0.40;0.40;;;-1.10;99.90;;;;;;5243360;28;20540;-74
2022/01/21 08:16:38;;;;;;;0.40;0.40;;;-1.20;99.90;;;;;;5228881;28;20044;-73
2022/01/21 08:19:09;;;;;;;0.40;0.40;;;-1.20;99.90;;;;;;5258872;28;20098;-73
2022/01/21 08:21:43;;;;;;;1.27;1.27;;;-1.10;99.90;;;;;;5226947;28;20024;-73
2022/01/21 08:24:14;;;;;;;;;;;-1.00;99.90;;;;;;5230783;28;20469;-74
2022/01/21 08:26:45;;;;;;;0.33;0.33;;;-1.10;99.90;;;;;;5255572;28;19923;-73
2022/01/21 08:29:23;;;;;;;0.50;0.50;;;-1.00;99.90;;;;;;5245534;28;20365;-74
2022/01/21 08:31:54;;;;;;;0.40;0.40;;;-1.00;99.90;;;;;;5231341;28;20450;-73
2022/01/21 08:34:29;;;;;;;0.60;0.60;;;-1.00;99.90;;;;;;5258519;28;20076;-76
2022/01/21 08:37:02;;;;;;;;;;;-0.90;99.90;;;;;;5268453;28;20028;-73
2022/01/21 08:39:33;;;;;;;0.40;0.40;;;-0.70;99.90;;;;;;5264895;28;20524;-73
2022/01/21 08:42:06;;;;;;;0.40;0.40;;;-0.60;99.90;;;;;;5239916;28;21295;-73
2022/01/21 08:44:37;;;;;;;0.50;0.50;;;-0.70;99.90;;;;;;5223863;28;20028;-73
2022/01/21 08:47:08;;;;;;;0.40;0.40;;;-0.70;99.90;;;;;;5226951;28;20103;-73
2022/01/21 08:49:41;;;;;;;0.50;0.50;;;-0.60;99.90;;;;;;5240859;28;20043;-74
2022/01/21 08:52:27;;;;;;;0.50;0.50;;;-0.50;99.90;;;;;;5261544;28;20074;-73
2022/01/21 08:55:02;;;;;;;0.65;0.65;;;-0.40;99.90;;;;;;5257003;28;20118;-72
2022/01/21 08:57:34;;;;;;;0.73;0.73;;;-0.40;99.90;;;;;;5260274;28;20374;-73
2022/01/21 09:00:22;;;;;;;0.43;0.43;;;-0.30;99.90;;;;;;5240966;28;20314;-73
2022/01/21 09:02:53;;;;;;;0.50;0.50;;;-0.30;99.90;;;;;;5227661;28;20489;-73
2022/01/21 09:05:24;;;;;;;0.57;0.57;;;-0.30;99.90;;;;;;5239408;28;20048;-73
2022/01/21 09:07:55;;;;;;;0.50;0.50;;;-0.30;99.90;;;;;;5221763;28;20579;-73
2022/01/21 09:10:26;;;;;;;0.40;0.40;;;-0.30;99.90;;;;;;5261427;28;20036;-74
2022/01/21 09:12:57;;;;;;;0.40;0.40;;;-0.20;99.90;;;;;;5245092;28;20111;-74
2022/01/21 09:15:33;;;;;;;0.50;0.50;;;-0.10;99.90;;;;;;5259848;28;20036;-73
2022/01/21 09:18:05;;;;;;;0.47;0.47;;;-0.30;99.90;;;;;;5262362;28;20099;-73
2022/01/21 09:20:37;;;;;;;0.30;0.30;;;-0.30;99.90;;;;;;5242901;28;20040;-73
2022/01/21 09:23:11;;;;;;;0.40;0.40;;;-0.20;99.90;;;;;;5242588;28;20085;-73
2022/01/21 09:25:44;;;;;;;0.50;0.50;;;-0.10;99.90;;;;;;5227266;28;20031;-72
2022/01/21 09:28:17;;;;;;;0.45;0.45;;;-0.10;99.90;;;;;;5265638;28;20034;-72
2022/01/21 09:30:48;;;;;;;0.50;0.50;;;-0.10;99.90;;;;;;5242239;28;20048;-72
2022/01/21 09:33:24;;;;;;;0.60;0.60;;;0.00;99.90;;;;;;5261604;28;20121;-73
2022/01/21 09:35:57;;;;;;;0.57;0.57;;;0.10;99.90;;;;;;5243823;28;20087;-73
2022/01/21 09:38:30;;;;;;;0.63;0.63;;;0.10;99.90;;;;;;5259845;28;20434;-73
2022/01/21 09:41:02;;;;;;;1.02;1.02;;;0.10;99.90;;;;;;5243882;28;20283;-73
2022/01/21 09:43:34;;;;;;;0.50;0.50;;;0.20;99.90;;;;;;5235863;28;20052;-74
2022/01/21 09:46:08;;;;;;;0.43;0.43;;;0.20;99.90;;;;;;5241258;28;20035;-75
2022/01/21 09:48:52;;;;;;;0.50;0.50;;;0.20;99.90;;;;;;5259578;28;20032;-72
2022/01/21 09:51:26;;;;;;;0.45;0.45;;;0.30;99.90;;;;;;5257689;28;20028;-74
2022/01/21 09:54:08;;;;;;;0.60;0.60;;;0.40;99.90;;;;;;5261708;28;20245;-73
2022/01/21 09:56:48;;;;;;;0.40;0.40;;;0.50;99.90;;;;;;5260853;28;20047;-74
2022/01/21 09:59:23;;;;;;;0.43;0.43;;;0.60;99.90;;;;;;5229796;28;20028;-74
2022/01/21 10:02:06;;;;;;;0.70;0.70;;;0.60;99.90;;;;;;5238473;28;20035;-74
2022/01/21 10:04:43;;;;;;;0.60;0.60;;;0.70;99.90;;;;;;5229914;28;20056;-74
2022/01/21 10:07:18;;;;;;;0.50;0.50;;;0.60;99.90;;;;;;5243071;28;20035;-74
2022/01/21 10:09:54;;;;;;;0.40;0.40;;;0.60;99.90;;;;;;5258479;28;20036;-73
2022/01/21 10:12:27;;;;;;;0.65;0.65;;;0.70;99.90;;;;;;5239943;28;20044;-73
2022/01/21 10:15:01;;;;;;;0.50;0.50;;;0.80;99.90;;;;;;5259468;28;20044;-73
2022/01/21 10:17:32;;;;;;;0.65;0.65;;;0.80;99.90;;;;;;5260765;28;20094;-74
2022/01/21 10:20:22;;;;;;;0.45;0.45;;;0.80;99.90;;;;;;5240538;28;20198;-74
2022/01/21 10:23:05;;;;;;;0.65;0.65;;;1.20;99.90;;;;;;5241842;28;20044;-74
2022/01/21 10:25:40;;;;;;;0.57;0.57;;;1.00;99.90;;;;;;5241150;28;20366;-75
2022/01/21 10:28:21;;;;;;;0.52;0.52;;;1.10;99.90;;;;;;5241756;28;20044;-74
2022/01/21 10:31:06;;;;;;;0.57;0.57;;;1.30;99.90;;;;;;5257494;28;20089;-73
2022/01/21 10:33:43;;;;;;;0.50;0.50;;;1.50;99.90;;;;;;5227855;28;20055;-74
2022/01/21 10:36:27;;;;;;;0.43;0.43;;;1.40;99.90;;;;;;5261990;28;20047;-74
2022/01/21 10:39:13;;;;;;;0.45;0.45;;;1.40;99.90;;;;;;5262199;28;20028;-75
2022/01/21 10:41:47;;;;;;;0.65;0.65;;;1.80;99.90;;;;;;5244941;28;20113;-74
2022/01/21 10:44:21;;;;;;;0.60;0.60;;;1.70;99.90;;;;;;5239028;28;20109;-74
2022/01/21 10:47:10;;;;;;;0.50;0.50;;;2.10;99.90;;;;;;5260302;28;20020;-74
2022/01/21 10:49:43;;;;;;;0.55;0.55;;;2.10;99.90;;;;;;5261653;28;20071;-74
2022/01/21 10:52:15;;;;;;;0.57;0.57;;;2.20;99.90;;;;;;5236367;28;20151;-75
2022/01/21 10:54:51;;;;;;;0.70;0.70;;;2.20;99.90;;;;;;5260117;28;20127;-75
2022/01/21 10:57:25;;;;;;;0.68;0.68;;;2.30;99.90;;;;;;5257811;28;20047;-75
2022/01/21 11:00:06;;;;;;;1.00;1.00;;;2.20;99.90;;;;;;5242377;28;20031;-75
2022/01/21 11:02:49;;;;;;;1.00;1.00;;;2.20;99.90;;;;;;5256727;28;20075;-75
2022/01/21 11:05:20;;;;;;;0.52;0.52;;;2.30;99.90;;;;;;5248498;28;20052;-74
2022/01/21 11:08:05;;;;;;;0.45;0.45;;;2.80;99.90;;;;;;5253170;28;20040;-75
2022/01/21 11:10:52;;;;;;;0.70;0.70;;;2.80;99.90;;;;;;5257419;28;20042;-75
2022/01/21 11:13:23;;;;;;;0.60;0.60;;;2.70;99.90;;;;;;5241560;28;20024;-77
2022/01/21 11:16:06;;;;;;;0.80;0.80;;;3.10;99.90;;;;;;5241170;28;20023;-75
2022/01/21 11:18:56;;;;;;;0.40;0.40;;;2.70;99.90;;;;;;5223434;28;20032;-76
2022/01/21 11:21:53;;;;;;;0.43;0.43;;;2.40;99.90;;;;;;5255185;28;20047;-76
2022/01/21 11:24:30;;;;;;;0.57;0.57;;;2.60;99.90;;;;;;5217691;28;20039;-76
2022/01/21 11:27:14;;;;;;;0.52;0.52;;;3.10;99.90;;;;;;5258722;28;20062;-76
2022/01/21 11:29:49;;;;;;;0.50;0.50;;;2.80;99.90;;;;;;5262256;28;20121;-76
2022/01/21 11:32:20;;;;;;;0.60;0.60;;;2.80;99.90;;;;;;5256462;28;20387;-77
2022/01/21 11:34:54;;;;;;;0.70;0.70;;;3.20;99.90;;;;;;5260045;28;20477;-79
2022/01/21 11:37:26;;;;;;;0.60;0.60;;;3.10;99.90;;;;;;5244931;28;20032;-76
2022/01/21 11:40:01;;;;;;;0.50;0.50;;;3.60;99.90;;;;;;5245307;28;20123;-78
2022/01/21 11:42:38;;;;;;;1.08;1.08;;;3.30;99.90;;;;;;5244459;28;20024;-78
2022/01/21 11:50:55;;;;;;;;;;;3.50;99.90;;;;;;5246154;28;20028;-78
2022/01/21 11:53:59;;;;;;;0.50;0.50;;;3.60;99.90;;;;;;5243637;28;20555;-78
2022/01/21 11:57:02;;;;;;;0.70;0.70;;;3.50;99.90;;;;;;5186494;28;20044;-78
2022/01/21 12:00:27;;;;;;;0.47;0.47;;;3.40;99.90;;;;;;5212103;28;20037;-78
2022/01/21 12:02:38;;;;;;;0.50;0.50;;;3.00;99.90;;;;;;5211591;28;20043;-79
2022/01/21 12:05:24;;;;;;;0.50;0.50;;;3.20;99.90;;;;;;5221536;28;20068;-79
2022/01/21 12:08:07;;;;;;;0.47;0.47;;;3.40;99.90;;;;;;5195367;28;20112;-78
2022/01/21 12:10:50;;;;;;;0.35;0.35;;;3.80;99.90;;;;;;5220905;28;20060;-78
2022/01/21 12:13:32;;;;;;;0.50;0.50;;;3.50;99.90;;;;;;5223160;28;20053;-79
2022/01/21 12:21:43;;;;;;;0.70;0.70;;;3.00;99.90;;;;;;5222755;28;20060;-80
2022/01/21 12:24:16;;;;;;;0.45;0.45;;;3.30;99.90;;;;;;5236030;28;20047;-79
2022/01/21 12:26:59;;;;;;;0.50;0.50;;;3.50;99.90;;;;;;5197534;28;20055;-81
2022/01/21 12:29:30;;;;;;;0.60;0.60;;;3.30;99.90;;;;;;5221183;28;20074;-78
2022/01/21 12:32:12;;;;;;;0.65;0.65;;;2.90;99.90;;;;;;5247031;28;20279;-79
2022/01/21 12:35:17;;;;;;;0.50;0.50;;;3.30;99.90;;;;;;5279102;28;20040;-79
2022/01/21 12:41:26;;;;;;;0.47;0.47;;;2.90;99.90;;;;;;5185647;28;20084;-79
2022/01/21 12:44:12;;;;;;;0.90;0.90;;;3.50;99.90;;;;;;5189528;28;20045;-79
2022/01/21 12:46:47;;;;;;;0.50;0.50;;;3.00;99.90;;;;;;5168961;28;20262;-79
2022/01/21 12:49:50;;;;;;;0.40;0.40;;;3.40;99.90;;;;;;5184696;28;20105;-78
2022/01/21 12:58:17;;;;;;;0.65;0.65;;;3.10;99.90;;;;;;5183915;28;20060;-78
2022/01/21 13:00:55;;;;;;;0.68;0.68;;;2.80;99.90;;;;;;5181290;28;20376;-79
2022/01/21 13:03:49;;;;;;;0.50;0.50;;;3.10;99.90;;;;;;5165803;28;20072;-79
2022/01/21 13:06:30;;;;;;;0.40;0.40;;;2.60;99.90;;;;;;5157649;28;20053;-79
2022/01/21 13:09:08;;;;;;;0.65;0.65;;;2.90;99.90;;;;;;5164915;28;20049;-79
2022/01/21 13:12:04;;;;;;;0.65;0.65;;;3.10;99.90;;;;;;5193398;28;20038;-79
2022/01/21 13:14:36;;;;;;;0.60;0.60;;;3.10;99.90;;;;;;5226368;28;20044;-79
2022/01/21 13:17:18;;;;;;;0.47;0.47;;;2.60;99.90;;;;;;5268364;28;20027;-77
2022/01/21 13:20:02;;;;;;;0.82;0.82;;;2.40;99.90;;;;;;5255811;28;20028;-79
2022/01/21 13:22:37;;;;;;;0.60;0.60;;;2.10;99.90;;;;;;5248268;28;20023;-77
2022/01/21 13:25:16;;;;;;;0.50;0.50;;;2.40;99.90;;;;;;5250914;28;20027;-78
2022/01/21 13:27:51;;;;;;;0.57;0.57;;;2.90;99.90;;;;;;5231689;28;20356;-78
2022/01/21 13:30:29;;;;;;;0.50;0.50;;;2.80;99.90;;;;;;5262221;28;20031;-77
2022/01/21 13:33:05;;;;;;;0.50;0.50;;;2.40;99.90;;;;;;5268055;28;20027;-78
2022/01/21 13:35:44;;;;;;;0.50;0.50;;;2.40;99.90;;;;;;5262022;28;20036;-78
2022/01/21 13:38:21;;;;;;;0.70;0.70;;;2.70;99.90;;;;;;5238236;28;20681;-77
2022/01/21 13:40:58;;;;;;;0.50;0.50;;;3.10;99.90;;;;;;5242753;28;20343;-77
2022/01/21 13:43:33;;;;;;;0.40;0.40;;;2.90;99.90;;;;;;5245411;28;20032;-76
2022/01/21 13:46:15;;;;;;;0.43;0.43;;;2.60;99.90;;;;;;5255362;28;20408;-76
2022/01/21 13:48:45;;;;;;;0.70;0.70;;;2.60;99.90;;;;;;5258776;28;20032;-76
2022/01/21 13:51:22;;;;;;;0.50;0.50;;;2.80;99.90;;;;;;5242620;28;20095;-76
2022/01/21 13:54:10;;;;;;;0.65;0.65;;;2.90;99.90;;;;;;5242450;28;20019;-76
2022/01/21 13:56:51;;;;;;;0.40;0.40;;;3.30;99.90;;;;;;5220657;28;20036;-76
2022/01/21 13:59:22;;;;;;;0.50;0.50;;;3.40;99.90;;;;;;5238742;28;20035;-75
2022/01/21 14:02:14;;;;;;;0.57;0.57;;;3.10;99.90;;;;;;5236350;28;20040;-76
2022/01/21 14:05:04;;;;;;;0.45;0.45;;;2.60;99.90;;;;;;5241232;28;20588;-76
2022/01/21 14:07:36;;;;;;;0.60;0.60;;;2.20;99.90;;;;;;5254310;28;20031;-76
2022/01/21 14:10:12;;;;;;;0.70;0.70;;;2.10;99.90;;;;;;5240966;28;20038;-78
2022/01/21 14:12:43;;;;;;;0.57;0.57;;;2.30;99.90;;;;;;5259395;28;20036;-75
2022/01/21 14:15:15;;;;;;;0.40;0.40;;;1.90;99.90;;;;;;5243797;28;20035;-76
2022/01/21 14:17:48;;;;;;;0.50;0.50;;;2.00;99.90;;;;;;5226129;28;20036;-76
2022/01/21 14:20:22;;;;;;;0.87;0.87;;;1.90;99.90;;;;;;5225060;28;20059;-76
2022/01/21 14:23:02;;;;;;;0.60;0.60;;;1.90;99.90;;;;;;5248663;28;20304;-75
2022/01/21 14:25:52;;;;;;;0.52;0.52;;;1.60;99.90;;;;;;5255716;28;20040;-75
2022/01/21 14:28:54;;;;;;;0.60;0.60;;;1.20;99.90;;;;;;5259443;28;20035;-76
2022/01/21 14:31:54;;;;;;;0.50;0.50;;;1.10;99.90;;;;;;5257043;28;20028;-75
2022/01/21 14:34:27;;;;;;;0.57;0.57;;;1.00;99.90;;;;;;5240320;28;20104;-74
2022/01/21 14:37:03;;;;;;;0.50;0.50;;;0.90;99.90;;;;;;5227611;28;20040;-75
2022/01/21 14:39:57;;;;;;;0.50;0.50;;;0.90;99.90;;;;;;5260728;28;20028;-75
2022/01/21 14:42:33;;;;;;;0.50;0.50;;;0.90;99.90;;;;;;5242807;28;20182;-76
2022/01/21 14:45:20;;;;;;;0.50;0.50;;;0.90;99.90;;;;;;5240825;28;20097;-74
2022/01/21 14:47:53;;;;;;;0.50;0.50;;;0.80;99.90;;;;;;5235418;28;20550;-74
2022/01/21 14:50:33;;;;;;;0.50;0.50;;;0.80;99.90;;;;;;5244435;28;20044;-74
2022/01/21 14:53:08;;;;;;;0.45;0.45;;;0.90;99.90;;;;;;5242898;28;20024;-75
2022/01/21 14:55:46;;;;;;;0.43;0.43;;;0.80;99.90;;;;;;5259464;28;20178;-74
2022/01/21 14:58:38;;;;;;;0.50;0.50;;;0.80;99.90;;;;;;5239601;28;20080;-74